sensor_id;sensor_type;location;lat;lon;timestamp;pressure;altitude;pressure_sealevel;temperature;humidity
58975;BME280;44751;52.236;5.178;2023-11-19T00:02:25;100582.06;;;24.81;100.00
58975;BME280;44751;52.236;5.178;2023-11-19T00:05:00;100577.69;;;24.69;100.00
58975;BME280;44751;52.236;5.178;2023-11-19T00:07:27;100566.69;;;24.54;100.00
58975;BME280;44751;52.236;5.178;2023-11-19T00:09:53;100566.25;;;24.20;100.00
58975;BME280;44751;52.236;5.178;2023-11-19T00:12:22;100576.31;;;24.61;100.00
58975;BME280;44751;52.236;5.178;2023-11-19T00:14:49;100581.50;;;24.84;100.00
58975;BME280;44751;52.236;5.178;2023-11-19T00:17:18;100577.56;;;23.62;100.00
58975;BME280;44751;52.236;5.178;2023-11-19T00:19:54;100583.59;;;24.31;100.00
58975;BME280;44751;52.236;5.178;2023-11-19T00:22:34;100588.75;;;24.64;100.00
58975;BME280;44751;52.236;5.178;2023-11-19T00:25:01;100565.34;;;24.41;100.00
58975;BME280;44751;52.236;5.178;2023-11-19T00:27:30;100562.03;;;24.49;100.00
58975;BME280;44751;52.236;5.178;2023-11-19T00:29:57;100561.91;;;24.91;100.00
58975;BME280;44751;52.236;5.178;2023-11-19T00:32:31;100546.41;;;24.08;100.00
58975;BME280;44751;52.236;5.178;2023-11-19T00:35:01;100554.63;;;24.34;100.00
58975;BME280;44751;52.236;5.178;2023-11-19T00:37:28;100555.84;;;24.78;100.00
58975;BME280;44751;52.236;5.178;2023-11-19T00:39:54;100544.84;;;24.68;100.00
58975;BME280;44751;52.236;5.178;2023-11-19T00:42:30;100544.66;;;24.43;100.00
58975;BME280;44751;52.236;5.178;2023-11-19T00:44:58;100541.44;;;24.05;100.00
58975;BME280;44751;52.236;5.178;2023-11-19T00:47:26;100549.44;;;23.96;100.00
58975;BME280;44751;52.236;5.178;2023-11-19T00:49:53;100544.38;;;24.55;100.00
58975;BME280;44751;52.236;5.178;2023-11-19T00:52:22;100543.13;;;23.64;100.00
58975;BME280;44751;52.236;5.178;2023-11-19T00:54:50;100551.13;;;23.81;100.00
58975;BME280;44751;52.236;5.178;2023-11-19T00:57:17;100547.50;;;24.02;100.00
58975;BME280;44751;52.236;5.178;2023-11-19T00:59:47;100547.53;;;24.12;100.00
58975;BME280;44751;52.236;5.178;2023-11-19T02:46:51;100520.28;;;23.53;100.00
58975;BME280;44751;52.236;5.178;2023-11-19T02:49:18;100522.66;;;23.13;100.00
58975;BME280;44751;52.236;5.178;2023-11-19T02:51:45;100521.63;;;23.61;100.00
58975;BME280;44751;52.236;5.178;2023-11-19T02:54:14;100524.88;;;23.21;100.00
58975;BME280;44751;52.236;5.178;2023-11-19T02:56:53;100531.69;;;22.88;100.00
58975;BME280;44751;52.236;5.178;2023-11-19T02:59:24;100523.28;;;23.57;100.00
58975;BME280;44751;52.236;5.178;2023-11-19T03:02:04;100518.59;;;23.47;100.00
58975;BME280;44751;52.236;5.178;2023-11-19T03:04:31;100520.25;;;23.38;100.00
58975;BME280;44751;52.236;5.178;2023-11-19T03:06:57;100515.81;;;23.21;100.00
58975;BME280;44751;52.236;5.178;2023-11-19T03:09:24;100517.78;;;23.72;100.00
58975;BME280;44751;52.236;5.178;2023-11-19T03:11:50;100530.72;;;23.67;99.36
58975;BME280;44751;52.236;5.178;2023-11-19T03:14:16;100534.03;;;23.38;99.92
58975;BME280;44751;52.236;5.178;2023-11-19T03:16:45;100526.72;;;22.79;100.00
58975;BME280;44751;52.236;5.178;2023-11-19T03:19:12;100522.88;;;22.80;100.00
58975;BME280;44751;52.236;5.178;2023-11-19T03:21:38;100520.88;;;22.60;100.00
58975;BME280;44751;52.236;5.178;2023-11-19T03:24:07;100519.88;;;22.82;100.00
58975;BME280;44751;52.236;5.178;2023-11-19T03:26:34;100514.44;;;23.24;100.00
58975;BME280;44751;52.236;5.178;2023-11-19T03:29:03;100514.78;;;23.53;99.26
58975;BME280;44751;52.236;5.178;2023-11-19T03:31:29;100504.50;;;23.12;100.00
58975;BME280;44751;52.236;5.178;2023-11-19T03:33:55;100505.28;;;22.87;100.00
58975;BME280;44751;52.236;5.178;2023-11-19T03:36:22;100504.28;;;23.40;99.90
58975;BME280;44751;52.236;5.178;2023-11-19T03:38:57;100497.63;;;23.09;99.87
58975;BME280;44751;52.236;5.178;2023-11-19T03:41:26;100494.06;;;23.04;100.00
58975;BME280;44751;52.236;5.178;2023-11-19T03:43:53;100492.13;;;22.30;100.00
58975;BME280;44751;52.236;5.178;2023-11-19T03:46:21;100505.28;;;22.76;100.00
58975;BME280;44751;52.236;5.178;2023-11-19T03:48:52;100519.53;;;22.68;100.00
58975;BME280;44751;52.236;5.178;2023-11-19T03:51:21;100528.16;;;23.08;99.01
58975;BME280;44751;52.236;5.178;2023-11-19T03:53:47;100524.22;;;22.67;99.96
58975;BME280;44751;52.236;5.178;2023-11-19T03:56:13;100532.31;;;23.26;99.42
58975;BME280;44751;52.236;5.178;2023-11-19T03:58:43;100528.72;;;23.05;99.42
58975;BME280;44751;52.236;5.178;2023-11-19T04:01:12;100530.19;;;22.05;100.00
58975;BME280;44751;52.236;5.178;2023-11-19T04:03:39;100531.16;;;22.91;100.00
58975;BME280;44751;52.236;5.178;2023-11-19T04:06:05;100519.84;;;22.23;100.00
58975;BME280;44751;52.236;5.178;2023-11-19T04:08:32;100522.78;;;22.60;100.00
58975;BME280;44751;52.236;5.178;2023-11-19T04:11:00;100523.22;;;23.10;98.90
58975;BME280;44751;52.236;5.178;2023-11-19T04:13:29;100531.31;;;22.15;100.00
58975;BME280;44751;52.236;5.178;2023-11-19T04:15:56;100532.59;;;23.14;98.88
58975;BME280;44751;52.236;5.178;2023-11-19T04:18:22;100527.38;;;23.13;97.61
58975;BME280;44751;52.236;5.178;2023-11-19T04:20:48;100531.03;;;22.60;99.87
58975;BME280;44751;52.236;5.178;2023-11-19T04:23:15;100541.75;;;22.56;100.00
58975;BME280;44751;52.236;5.178;2023-11-19T04:25:46;100526.50;;;22.38;100.00
58975;BME280;44751;52.236;5.178;2023-11-19T04:28:12;100535.56;;;22.33;100.00
58975;BME280;44751;52.236;5.178;2023-11-19T04:30:39;100537.50;;;22.38;100.00
58975;BME280;44751;52.236;5.178;2023-11-19T04:33:06;100524.53;;;22.81;98.72
58975;BME280;44751;52.236;5.178;2023-11-19T04:35:32;100524.47;;;22.66;99.14
58975;BME280;44751;52.236;5.178;2023-11-19T04:38:01;100530.47;;;22.57;100.00
58975;BME280;44751;52.236;5.178;2023-11-19T04:40:30;100534.06;;;22.15;100.00
58975;BME280;44751;52.236;5.178;2023-11-19T04:42:56;100538.81;;;22.25;100.00
58975;BME280;44751;52.236;5.178;2023-11-19T04:45:23;100533.28;;;22.68;99.73
58975;BME280;44751;52.236;5.178;2023-11-19T04:47:49;100535.66;;;22.05;100.00
58975;BME280;44751;52.236;5.178;2023-11-19T04:50:15;100539.13;;;22.82;98.47
58975;BME280;44751;52.236;5.178;2023-11-19T04:52:47;100531.19;;;23.01;98.39
58975;BME280;44751;52.236;5.178;2023-11-19T04:55:13;100531.34;;;22.74;99.15
58975;BME280;44751;52.236;5.178;2023-11-19T04:57:40;100522.50;;;22.08;99.55
58975;BME280;44751;52.236;5.178;2023-11-19T05:00:06;100533.28;;;22.19;100.00
58975;BME280;44751;52.236;5.178;2023-11-19T05:02:34;100529.84;;;22.45;100.00
58975;BME280;44751;52.236;5.178;2023-11-19T05:05:05;100522.88;;;22.80;98.55
58975;BME280;44751;52.236;5.178;2023-11-19T05:07:32;100528.72;;;23.10;98.40
58975;BME280;44751;52.236;5.178;2023-11-19T05:09:58;100540.69;;;22.19;99.38
58975;BME280;44751;52.236;5.178;2023-11-19T05:12:25;100530.59;;;22.30;98.68
58975;BME280;44751;52.236;5.178;2023-11-19T05:14:51;100539.06;;;22.72;98.97
58975;BME280;44751;52.236;5.178;2023-11-19T05:17:28;100543.59;;;23.25;96.49
58975;BME280;44751;52.236;5.178;2023-11-19T05:19:54;100534.66;;;22.70;98.54
58975;BME280;44751;52.236;5.178;2023-11-19T05:22:20;100536.78;;;22.10;98.97
58975;BME280;44751;52.236;5.178;2023-11-19T05:24:47;100542.63;;;22.18;100.00
58975;BME280;44751;52.236;5.178;2023-11-19T05:27:18;100541.03;;;22.33;99.50
58975;BME280;44751;52.236;5.178;2023-11-19T05:29:44;100543.88;;;22.00;99.78
58975;BME280;44751;52.236;5.178;2023-11-19T05:32:11;100547.81;;;21.77;100.00
58975;BME280;44751;52.236;5.178;2023-11-19T05:34:37;100537.13;;;22.18;99.46
58975;BME280;44751;52.236;5.178;2023-11-19T05:37:03;100533.56;;;22.23;98.27
58975;BME280;44751;52.236;5.178;2023-11-19T05:39:30;100535.44;;;21.74;98.80
58975;BME280;44751;52.236;5.178;2023-11-19T05:41:59;100539.31;;;21.78;100.00
58975;BME280;44751;52.236;5.178;2023-11-19T05:44:26;100544.63;;;21.85;99.84
58975;BME280;44751;52.236;5.178;2023-11-19T05:46:52;100551.91;;;22.12;97.18
58975;BME280;44751;52.236;5.178;2023-11-19T05:49:19;100546.53;;;22.33;98.56
58975;BME280;44751;52.236;5.178;2023-11-19T05:51:45;100557.00;;;22.36;96.88
58975;BME280;44751;52.236;5.178;2023-11-19T05:54:12;100540.47;;;22.79;94.84
58975;BME280;44751;52.236;5.178;2023-11-19T05:56:38;100548.38;;;22.17;96.63
58975;BME280;44751;52.236;5.178;2023-11-19T05:59:05;100544.72;;;22.49;97.94
58975;BME280;44751;52.236;5.178;2023-11-19T06:01:34;100528.41;;;21.89;96.95
58975;BME280;44751;52.236;5.178;2023-11-19T06:04:01;100536.56;;;22.16;97.35
58975;BME280;44751;52.236;5.178;2023-11-19T06:06:28;100539.75;;;22.46;95.53
58975;BME280;44751;52.236;5.178;2023-11-19T06:08:54;100540.53;;;21.93;96.47
58975;BME280;44751;52.236;5.178;2023-11-19T06:11:21;100544.91;;;21.89;97.79
58975;BME280;44751;52.236;5.178;2023-11-19T06:13:48;100547.97;;;22.41;97.27
58975;BME280;44751;52.236;5.178;2023-11-19T06:16:15;100539.34;;;21.51;97.59
58975;BME280;44751;52.236;5.178;2023-11-19T06:18:42;100540.38;;;21.45;97.45
58975;BME280;44751;52.236;5.178;2023-11-19T06:21:17;100548.44;;;22.27;97.23
58975;BME280;44751;52.236;5.178;2023-11-19T06:23:43;100542.72;;;22.34;95.24
58975;BME280;44751;52.236;5.178;2023-11-19T06:26:10;100551.47;;;22.26;96.25
58975;BME280;44751;52.236;5.178;2023-11-19T06:28:36;100557.03;;;21.98;97.78
58975;BME280;44751;52.236;5.178;2023-11-19T06:31:03;100551.97;;;21.79;98.37
58975;BME280;44751;52.236;5.178;2023-11-19T06:33:32;100547.25;;;22.08;96.59
58975;BME280;44751;52.236;5.178;2023-11-19T06:35:58;100541.44;;;22.52;96.17
58975;BME280;44751;52.236;5.178;2023-11-19T06:38:25;100540.66;;;22.14;96.22
58975;BME280;44751;52.236;5.178;2023-11-19T06:40:51;100532.13;;;22.59;95.84
58975;BME280;44751;52.236;5.178;2023-11-19T06:43:17;100550.41;;;22.96;94.08
58975;BME280;44751;52.236;5.178;2023-11-19T06:45:46;100557.94;;;22.52;95.55
58975;BME280;44751;52.236;5.178;2023-11-19T06:48:14;100557.88;;;22.42;95.24
58975;BME280;44751;52.236;5.178;2023-11-19T06:50:41;100562.88;;;22.07;95.80
58975;BME280;44751;52.236;5.178;2023-11-19T06:53:07;100556.16;;;21.87;96.90
58975;BME280;44751;52.236;5.178;2023-11-19T06:55:35;100566.28;;;22.25;95.66
58975;BME280;44751;52.236;5.178;2023-11-19T06:58:01;100570.03;;;22.08;96.22
58975;BME280;44751;52.236;5.178;2023-11-19T07:00:28;100564.88;;;22.17;96.79
58975;BME280;44751;52.236;5.178;2023-11-19T07:02:57;100563.03;;;22.76;94.21
58975;BME280;44751;52.236;5.178;2023-11-19T07:05:25;100571.28;;;21.95;97.63
58975;BME280;44751;52.236;5.178;2023-11-19T07:07:51;100568.53;;;21.95;96.82
58975;BME280;44751;52.236;5.178;2023-11-19T07:10:19;100569.34;;;21.63;97.03
58975;BME280;44751;52.236;5.178;2023-11-19T07:12:46;100579.53;;;21.95;97.07
58975;BME280;44751;52.236;5.178;2023-11-19T07:15:15;100583.06;;;21.85;97.83
58975;BME280;44751;52.236;5.178;2023-11-19T07:17:42;100590.97;;;21.82;98.06
58975;BME280;44751;52.236;5.178;2023-11-19T07:20:10;100592.22;;;22.01;97.78
58975;BME280;44751;52.236;5.178;2023-11-19T07:22:40;100600.22;;;22.03;96.91
58975;BME280;44751;52.236;5.178;2023-11-19T07:25:10;100595.06;;;21.79;99.07
58975;BME280;44751;52.236;5.178;2023-11-19T07:27:36;100594.97;;;22.39;97.70
58975;BME280;44751;52.236;5.178;2023-11-19T07:30:03;100591.50;;;21.78;97.32
58975;BME280;44751;52.236;5.178;2023-11-19T07:32:30;100596.09;;;21.45;97.74
58975;BME280;44751;52.236;5.178;2023-11-19T07:34:56;100594.22;;;21.78;98.76
58975;BME280;44751;52.236;5.178;2023-11-19T07:37:25;100605.91;;;21.36;99.50
58975;BME280;44751;52.236;5.178;2023-11-19T07:39:52;100598.34;;;21.48;99.63
58975;BME280;44751;52.236;5.178;2023-11-19T07:42:18;100604.31;;;22.00;96.88
58975;BME280;44751;52.236;5.178;2023-11-19T07:44:44;100604.81;;;22.30;97.27
58975;BME280;44751;52.236;5.178;2023-11-19T07:47:11;100602.22;;;21.80;98.17
58975;BME280;44751;52.236;5.178;2023-11-19T07:49:37;100606.16;;;21.89;98.73
58975;BME280;44751;52.236;5.178;2023-11-19T07:52:04;100600.88;;;22.59;96.62
58975;BME280;44751;52.236;5.178;2023-11-19T07:54:30;100600.69;;;22.33;96.20
58975;BME280;44751;52.236;5.178;2023-11-19T07:56:57;100593.69;;;21.76;97.77
58975;BME280;44751;52.236;5.178;2023-11-19T07:59:23;100592.31;;;22.12;97.18
58975;BME280;44751;52.236;5.178;2023-11-19T08:01:49;100598.13;;;22.21;96.72
58975;BME280;44751;52.236;5.178;2023-11-19T08:04:16;100588.09;;;22.37;95.96
58975;BME280;44751;52.236;5.178;2023-11-19T08:06:44;100584.06;;;22.12;96.62
58975;BME280;44751;52.236;5.178;2023-11-19T08:09:11;100589.31;;;22.56;95.26
58975;BME280;44751;52.236;5.178;2023-11-19T08:11:39;100583.84;;;22.18;96.94
58975;BME280;44751;52.236;5.178;2023-11-19T08:14:05;100580.53;;;22.60;96.06
58975;BME280;44751;52.236;5.178;2023-11-19T08:16:32;100578.63;;;22.65;96.61
58975;BME280;44751;52.236;5.178;2023-11-19T08:19:02;100584.50;;;22.90;94.99
58975;BME280;44751;52.236;5.178;2023-11-19T08:21:29;100579.22;;;22.29;95.47
58975;BME280;44751;52.236;5.178;2023-11-19T08:23:55;100586.75;;;23.03;95.03
58975;BME280;44751;52.236;5.178;2023-11-19T08:26:21;100588.47;;;23.25;94.83
58975;BME280;44751;52.236;5.178;2023-11-19T08:28:48;100600.66;;;22.70;95.30
58975;BME280;44751;52.236;5.178;2023-11-19T08:31:14;100604.81;;;22.83;95.36
58975;BME280;44751;52.236;5.178;2023-11-19T08:33:42;100607.34;;;22.90;95.07
58975;BME280;44751;52.236;5.178;2023-11-19T08:36:08;100606.44;;;22.26;97.14
58975;BME280;44751;52.236;5.178;2023-11-19T08:38:35;100606.66;;;23.31;93.49
58975;BME280;44751;52.236;5.178;2023-11-19T08:41:01;100612.81;;;22.85;94.19
58975;BME280;44751;52.236;5.178;2023-11-19T08:43:28;100597.28;;;23.17;95.65
58975;BME280;44751;52.236;5.178;2023-11-19T08:45:59;100615.94;;;23.09;94.51
58975;BME280;44751;52.236;5.178;2023-11-19T08:48:26;100611.91;;;23.38;93.84
58975;BME280;44751;52.236;5.178;2023-11-19T08:50:52;100601.34;;;23.09;94.06
58975;BME280;44751;52.236;5.178;2023-11-19T08:53:18;100607.03;;;22.81;94.49
58975;BME280;44751;52.236;5.178;2023-11-19T08:55:48;100614.72;;;22.79;96.75
58975;BME280;44751;52.236;5.178;2023-11-19T08:58:15;100603.25;;;22.06;95.97
58975;BME280;44751;52.236;5.178;2023-11-19T09:00:43;100611.09;;;22.74;95.41
58975;BME280;44751;52.236;5.178;2023-11-19T09:03:12;100601.78;;;22.75;94.58
58975;BME280;44751;52.236;5.178;2023-11-19T09:05:38;100601.72;;;22.64;94.29
58975;BME280;44751;52.236;5.178;2023-11-19T09:08:07;100614.97;;;22.78;94.49
58975;BME280;44751;52.236;5.178;2023-11-19T09:10:46;100607.56;;;23.47;94.32
58975;BME280;44751;52.236;5.178;2023-11-19T09:13:13;100623.34;;;22.50;95.52
58975;BME280;44751;52.236;5.178;2023-11-19T09:15:45;100611.25;;;23.10;93.43
58975;BME280;44751;52.236;5.178;2023-11-19T09:18:14;100599.75;;;23.24;92.06
58975;BME280;44751;52.236;5.178;2023-11-19T09:20:40;100597.81;;;23.24;92.51
58975;BME280;44751;52.236;5.178;2023-11-19T09:23:06;100593.88;;;22.89;93.44
58975;BME280;44751;52.236;5.178;2023-11-19T09:25:34;100613.16;;;22.99;93.80
58975;BME280;44751;52.236;5.178;2023-11-19T09:28:00;100597.94;;;22.81;94.62
58975;BME280;44751;52.236;5.178;2023-11-19T09:30:33;100609.47;;;23.37;92.86
58975;BME280;44751;52.236;5.178;2023-11-19T09:33:00;100618.59;;;23.63;92.91
58975;BME280;44751;52.236;5.178;2023-11-19T09:35:26;100611.66;;;23.34;91.84
58975;BME280;44751;52.236;5.178;2023-11-19T09:38:01;100615.44;;;23.28;93.22
58975;BME280;44751;52.236;5.178;2023-11-19T09:40:30;100617.41;;;23.38;93.54
58975;BME280;44751;52.236;5.178;2023-11-19T09:42:56;100598.91;;;23.23;93.22
58975;BME280;44751;52.236;5.178;2023-11-19T09:45:23;100607.06;;;22.92;92.10
58975;BME280;44751;52.236;5.178;2023-11-19T09:47:52;100594.50;;;23.17;92.64
58975;BME280;44751;52.236;5.178;2023-11-19T09:50:20;100605.72;;;22.94;93.22
58975;BME280;44751;52.236;5.178;2023-11-19T09:52:46;100596.78;;;23.36;92.10
58975;BME280;44751;52.236;5.178;2023-11-19T09:55:14;100590.50;;;23.51;92.66
58975;BME280;44751;52.236;5.178;2023-11-19T09:57:48;100592.06;;;23.31;93.66
58975;BME280;44751;52.236;5.178;2023-11-19T10:00:19;100601.28;;;22.83;92.91
58975;BME280;44751;52.236;5.178;2023-11-19T10:02:50;100593.94;;;23.15;92.63
58975;BME280;44751;52.236;5.178;2023-11-19T10:05:20;100586.06;;;23.50;91.85
58975;BME280;44751;52.236;5.178;2023-11-19T10:07:48;100592.50;;;22.91;92.38
58975;BME280;44751;52.236;5.178;2023-11-19T10:10:21;100579.47;;;23.71;92.58
58975;BME280;44751;52.236;5.178;2023-11-19T10:12:50;100590.22;;;23.73;91.82
58975;BME280;44751;52.236;5.178;2023-11-19T10:15:20;100579.53;;;22.76;93.38
58975;BME280;44751;52.236;5.178;2023-11-19T10:17:47;100580.75;;;23.27;91.86
58975;BME280;44751;52.236;5.178;2023-11-19T10:20:20;100598.16;;;23.38;93.29
58975;BME280;44751;52.236;5.178;2023-11-19T10:22:47;100592.56;;;23.17;91.75
58975;BME280;44751;52.236;5.178;2023-11-19T10:25:28;100588.28;;;23.58;91.97
58975;BME280;44751;52.236;5.178;2023-11-19T10:28:00;100582.50;;;23.75;92.68
58975;BME280;44751;52.236;5.178;2023-11-19T10:30:29;100577.84;;;23.91;91.59
58975;BME280;44751;52.236;5.178;2023-11-19T10:33:08;100569.81;;;23.84;92.31
58975;BME280;44751;52.236;5.178;2023-11-19T10:35:53;100580.84;;;23.53;93.26
58975;BME280;44751;52.236;5.178;2023-11-19T10:38:23;100585.22;;;23.44;91.06
58975;BME280;44751;52.236;5.178;2023-11-19T10:40:56;100591.03;;;23.94;90.75
58975;BME280;44751;52.236;5.178;2023-11-19T10:43:23;100587.94;;;23.33;92.81
58975;BME280;44751;52.236;5.178;2023-11-19T10:45:50;100591.19;;;23.04;95.41
58975;BME280;44751;52.236;5.178;2023-11-19T10:48:38;100580.56;;;23.50;94.27
58975;BME280;44751;52.236;5.178;2023-11-19T10:51:04;100581.56;;;23.07;94.65
58975;BME280;44751;52.236;5.178;2023-11-19T10:53:32;100577.31;;;22.83;94.60
58975;BME280;44751;52.236;5.178;2023-11-19T10:56:09;100578.94;;;23.64;92.04
58975;BME280;44751;52.236;5.178;2023-11-19T10:58:42;100591.94;;;22.89;93.60
58975;BME280;44751;52.236;5.178;2023-11-19T11:01:13;100590.94;;;23.16;93.94
58975;BME280;44751;52.236;5.178;2023-11-19T11:03:40;100576.16;;;24.01;93.18
58975;BME280;44751;52.236;5.178;2023-11-19T11:06:07;100580.84;;;23.74;91.51
58975;BME280;44751;52.236;5.178;2023-11-19T11:08:34;100587.72;;;23.97;91.23
58975;BME280;44751;52.236;5.178;2023-11-19T11:11:02;100579.75;;;23.70;91.54
58975;BME280;44751;52.236;5.178;2023-11-19T11:13:30;100576.78;;;22.33;92.44
58975;BME280;44751;52.236;5.178;2023-11-19T11:15:58;100574.16;;;23.28;90.14
58975;BME280;44751;52.236;5.178;2023-11-19T11:18:25;100570.94;;;23.94;90.08
58975;BME280;44751;52.236;5.178;2023-11-19T11:20:57;100574.50;;;24.20;87.46
58975;BME280;44751;52.236;5.178;2023-11-19T11:26:14;100567.06;;;23.64;89.55
58975;BME280;44751;52.236;5.178;2023-11-19T11:28:52;100581.34;;;23.29;89.86
58975;BME280;44751;52.236;5.178;2023-11-19T11:39:29;100564.34;;;23.69;89.39
58975;BME280;44751;52.236;5.178;2023-11-19T11:47:50;100555.22;;;23.73;88.79
58975;BME280;44751;52.236;5.178;2023-11-19T11:55:29;100552.69;;;23.30;87.82
58975;BME280;44751;52.236;5.178;2023-11-19T11:58:05;100559.34;;;23.76;86.76
58975;BME280;44751;52.236;5.178;2023-11-19T12:00:41;100557.97;;;23.37;86.25
58975;BME280;44751;52.236;5.178;2023-11-19T12:03:08;100545.59;;;24.02;87.74
58975;BME280;44751;52.236;5.178;2023-11-19T12:05:41;100553.56;;;23.41;87.49
58975;BME280;44751;52.236;5.178;2023-11-19T12:08:10;100548.56;;;24.37;87.90
58975;BME280;44751;52.236;5.178;2023-11-19T12:10:49;100536.22;;;23.98;86.84
58975;BME280;44751;52.236;5.178;2023-11-19T12:13:17;100536.19;;;24.03;88.96
58975;BME280;44751;52.236;5.178;2023-11-19T12:21:32;100547.94;;;24.61;88.10
58975;BME280;44751;52.236;5.178;2023-11-19T12:24:02;100550.41;;;24.57;87.72
58975;BME280;44751;52.236;5.178;2023-11-19T12:26:36;100552.94;;;24.48;89.04
58975;BME280;44751;52.236;5.178;2023-11-19T12:29:03;100547.47;;;24.22;89.96
58975;BME280;44751;52.236;5.178;2023-11-19T12:31:31;100544.06;;;24.62;89.77
58975;BME280;44751;52.236;5.178;2023-11-19T12:33:57;100545.56;;;24.99;87.81
58975;BME280;44751;52.236;5.178;2023-11-19T12:36:25;100555.72;;;24.38;87.83
58975;BME280;44751;52.236;5.178;2023-11-19T12:38:51;100559.09;;;23.78;89.53
58975;BME280;44751;52.236;5.178;2023-11-19T12:41:17;100551.94;;;23.71;90.34
58975;BME280;44751;52.236;5.178;2023-11-19T12:43:47;100552.75;;;23.72;90.22
58975;BME280;44751;52.236;5.178;2023-11-19T12:46:17;100553.81;;;23.29;91.52
58975;BME280;44751;52.236;5.178;2023-11-19T12:48:43;100562.59;;;23.21;90.89
58975;BME280;44751;52.236;5.178;2023-11-19T12:51:13;100546.44;;;23.77;90.31
58975;BME280;44751;52.236;5.178;2023-11-19T12:53:51;100549.47;;;23.70;89.36
58975;BME280;44751;52.236;5.178;2023-11-19T12:56:20;100553.84;;;23.86;87.35
58975;BME280;44751;52.236;5.178;2023-11-19T12:58:47;100546.16;;;23.73;88.15
58975;BME280;44751;52.236;5.178;2023-11-19T13:01:17;100544.22;;;23.84;88.17
58975;BME280;44751;52.236;5.178;2023-11-19T13:03:48;100549.88;;;22.94;88.30
58975;BME280;44751;52.236;5.178;2023-11-19T13:06:16;100537.31;;;23.60;86.57
58975;BME280;44751;52.236;5.178;2023-11-19T13:08:46;100540.94;;;23.71;86.39
58975;BME280;44751;52.236;5.178;2023-11-19T13:11:13;100552.34;;;22.90;87.46
58975;BME280;44751;52.236;5.178;2023-11-19T13:16:41;100550.88;;;22.67;91.18
58975;BME280;44751;52.236;5.178;2023-11-19T13:19:10;100545.53;;;23.14;91.59
58975;BME280;44751;52.236;5.178;2023-11-19T13:21:37;100534.09;;;22.63;92.59
58975;BME280;44751;52.236;5.178;2023-11-19T13:24:05;100547.72;;;23.17;91.69
58975;BME280;44751;52.236;5.178;2023-11-19T13:26:31;100544.03;;;22.80;92.95
58975;BME280;44751;52.236;5.178;2023-11-19T13:29:00;100538.72;;;22.57;93.38
58975;BME280;44751;52.236;5.178;2023-11-19T13:31:27;100541.47;;;23.63;92.16
58975;BME280;44751;52.236;5.178;2023-11-19T13:33:53;100543.13;;;23.69;90.50
58975;BME280;44751;52.236;5.178;2023-11-19T13:36:20;100531.09;;;22.75;91.97
58975;BME280;44751;52.236;5.178;2023-11-19T13:38:46;100528.44;;;23.01;92.71
58975;BME280;44751;52.236;5.178;2023-11-19T13:41:12;100551.81;;;22.99;93.23
58975;BME280;44751;52.236;5.178;2023-11-19T13:43:39;100528.34;;;22.75;95.63
58975;BME280;44751;52.236;5.178;2023-11-19T13:46:07;100543.41;;;23.42;94.29
58975;BME280;44751;52.236;5.178;2023-11-19T13:48:35;100521.91;;;23.80;92.68
58975;BME280;44751;52.236;5.178;2023-11-19T13:51:01;100519.38;;;23.21;94.18
58975;BME280;44751;52.236;5.178;2023-11-19T13:53:30;100524.69;;;23.54;94.01
58975;BME280;44751;52.236;5.178;2023-11-19T13:55:56;100536.78;;;23.48;93.31
58975;BME280;44751;52.236;5.178;2023-11-19T13:58:23;100525.94;;;22.94;94.55
58975;BME280;44751;52.236;5.178;2023-11-19T14:00:49;100520.00;;;22.54;94.74
58975;BME280;44751;52.236;5.178;2023-11-19T14:03:15;100526.88;;;23.52;93.18
58975;BME280;44751;52.236;5.178;2023-11-19T14:05:42;100526.84;;;23.89;91.96
58975;BME280;44751;52.236;5.178;2023-11-19T14:08:11;100517.19;;;23.34;92.41
58975;BME280;44751;52.236;5.178;2023-11-19T14:10:40;100510.63;;;22.50;92.73
58975;BME280;44751;52.236;5.178;2023-11-19T14:13:07;100513.88;;;23.16;90.77
58975;BME280;44751;52.236;5.178;2023-11-19T14:15:34;100510.56;;;23.09;90.63
58975;BME280;44751;52.236;5.178;2023-11-19T14:18:00;100514.94;;;23.10;92.54
58975;BME280;44751;52.236;5.178;2023-11-19T14:20:30;100513.03;;;23.16;91.73
58975;BME280;44751;52.236;5.178;2023-11-19T14:23:04;100508.72;;;23.41;91.06
58975;BME280;44751;52.236;5.178;2023-11-19T14:25:30;100509.22;;;23.22;90.03
58975;BME280;44751;52.236;5.178;2023-11-19T14:27:57;100504.56;;;23.64;89.95
58975;BME280;44751;52.236;5.178;2023-11-19T14:30:23;100511.47;;;23.46;90.21
58975;BME280;44751;52.236;5.178;2023-11-19T14:33:00;100504.22;;;22.93;93.29
58975;BME280;44751;52.236;5.178;2023-11-19T14:35:26;100503.31;;;22.77;93.44
58975;BME280;44751;52.236;5.178;2023-11-19T14:37:55;100503.63;;;22.91;92.55
58975;BME280;44751;52.236;5.178;2023-11-19T14:40:21;100506.44;;;23.12;91.74
58975;BME280;44751;52.236;5.178;2023-11-19T14:42:51;100507.22;;;22.86;93.53
58975;BME280;44751;52.236;5.178;2023-11-19T14:45:18;100507.44;;;22.64;93.81
58975;BME280;44751;52.236;5.178;2023-11-19T14:47:44;100505.38;;;23.59;90.93
58975;BME280;44751;52.236;5.178;2023-11-19T14:50:10;100497.66;;;23.25;90.87
58975;BME280;44751;52.236;5.178;2023-11-19T14:52:37;100500.78;;;22.60;92.72
58975;BME280;44751;52.236;5.178;2023-11-19T14:55:09;100498.19;;;23.22;92.02
58975;BME280;44751;52.236;5.178;2023-11-19T14:57:36;100494.34;;;23.23;90.80
58975;BME280;44751;52.236;5.178;2023-11-19T15:00:04;100498.47;;;24.04;89.05
58975;BME280;44751;52.236;5.178;2023-11-19T15:02:38;100504.00;;;23.72;88.98
58975;BME280;44751;52.236;5.178;2023-11-19T15:05:09;100504.84;;;23.73;89.65
58975;BME280;44751;52.236;5.178;2023-11-19T15:07:38;100503.63;;;22.91;90.17
58975;BME280;44751;52.236;5.178;2023-11-19T15:10:05;100500.56;;;22.77;90.83